Time;durP1;ratioP1;P1;durP2;ratioP2;P2;SDS_P1;SDS_P2;PMS_P1;PMS_P2;Temp;Humidity;BMP_temperature;BMP_pressure;BME280_temperature;BME280_humidity;BME280_pressure;Samples;Min_cycle;Max_cycle;Signal;HPM_P1;HPM_P2
2023/01/26 00:01:36;;;;;;;23.90;14.83;;;;;;;6.47;56.34;99337.09;7059341;28;20204;-78
2023/01/26 00:04:57;;;;;;;20.90;14.97;;;;;;;6.45;56.98;99346.28;7058658;28;20231;-78
2023/01/26 00:08:19;;;;;;;25.80;15.60;;;;;;;6.61;56.85;99343.63;7052478;28;20412;-78
2023/01/26 00:11:41;;;;;;;23.33;16.00;;;;;;;6.80;56.87;99322.69;7007002;28;20213;-78
2023/01/26 00:15:02;;;;;;;22.37;15.03;;;;;;;7.06;56.53;99341.25;7002249;28;20302;-78
2023/01/26 00:18:25;;;;;;;29.60;16.80;;;;;;;7.41;55.53;99328.25;7002805;28;20316;-78
2023/01/26 00:21:47;;;;;;;23.03;16.33;;;;;;;7.19;55.54;99306.72;7002062;28;20239;-77
2023/01/26 00:25:09;;;;;;;24.63;16.03;;;;;;;7.31;54.42;99321.44;7002223;28;20731;-78
2023/01/26 00:28:30;;;;;;;26.53;16.93;;;;;;;6.74;57.04;99317.16;7002024;28;20257;-78
2023/01/26 00:31:52;;;;;;;26.30;16.73;;;;;;;6.92;56.31;99302.59;7003028;28;20278;-78
2023/01/26 00:35:15;;;;;;;33.23;19.83;;;;;;;6.72;56.71;99303.94;7002877;28;20271;-78
2023/01/26 00:38:37;;;;;;;31.43;20.40;;;;;;;6.48;56.57;99287.06;7002968;28;20666;-78
2023/01/26 00:42:08;;;;;;;26.77;18.77;;;;;;;6.89;56.66;99289.50;7002642;28;20842;-78
2023/01/26 00:45:30;;;;;;;25.60;17.50;;;;;;;7.21;55.85;99293.97;7002429;28;20269;-78
2023/01/26 00:48:51;;;;;;;29.40;18.57;;;;;;;7.03;56.28;99288.81;7004522;28;20222;-78
2023/01/26 00:52:14;;;;;;;25.03;17.30;;;;;;;6.22;57.68;99289.03;7017283;28;20241;-78
2023/01/26 00:55:36;;;;;;;28.73;16.47;;;;;;;5.79;59.17;99270.53;7009129;28;20348;-78
2023/01/26 00:58:57;;;;;;;26.30;16.37;;;;;;;6.09;58.49;99281.50;7009671;28;20646;-78
2023/01/26 01:02:19;;;;;;;29.17;18.30;;;;;;;6.19;58.98;99284.84;7009356;28;20245;-78
2023/01/26 01:05:40;;;;;;;25.93;17.13;;;;;;;6.54;57.49;99276.47;7008507;28;20211;-77
2023/01/26 01:09:03;;;;;;;34.20;20.97;;;;;;;6.65;57.17;99272.63;7008224;28;20226;-77
2023/01/26 01:12:25;;;;;;;33.63;20.47;;;;;;;6.81;57.68;99281.50;7008930;28;20217;-78
2023/01/26 01:15:46;;;;;;;26.47;17.90;;;;;;;6.66;57.00;99239.47;7008095;28;20696;-78
2023/01/26 01:19:15;;;;;;;26.33;16.67;;;;;;;6.85;56.78;99274.75;7007639;28;20322;-78
2023/01/26 01:22:37;;;;;;;33.87;21.03;;;;;;;6.09;58.89;99241.34;7007680;28;20231;-78
2023/01/26 01:26:01;;;;;;;45.07;24.33;;;;;;;5.80;59.65;99249.00;7007254;28;20202;-78
2023/01/26 01:29:23;;;;;;;38.73;22.00;;;;;;;6.02;59.69;99276.97;7007183;28;20359;-78
2023/01/26 01:32:48;;;;;;;41.00;22.70;;;;;;;6.39;58.66;99272.81;7007998;28;20273;-77
2023/01/26 01:36:11;;;;;;;42.10;23.43;;;;;;;6.27;59.49;99276.84;7007355;28;20213;-78
2023/01/26 01:39:33;;;;;;;38.03;22.70;;;;;;;6.07;59.37;99267.44;7008121;28;20316;-77
2023/01/26 01:42:56;;;;;;;43.23;23.67;;;;;;;5.88;60.35;99269.56;7008418;28;20800;-79
2023/01/26 01:46:23;;;;;;;41.63;22.67;;;;;;;6.10;59.97;99268.94;7007652;28;20275;-78
2023/01/26 01:49:46;;;;;;;40.80;22.40;;;;;;;5.78;60.11;99250.94;7008100;28;20655;-78
2023/01/26 01:53:10;;;;;;;40.73;21.73;;;;;;;5.62;61.04;99247.41;7007754;28;20731;-78
2023/01/26 01:56:33;;;;;;;37.40;21.47;;;;;;;6.23;60.40;99256.75;7007059;28;20221;-78
2023/01/26 01:59:59;;;;;;;40.83;21.57;;;;;;;5.97;60.51;99252.53;7007390;28;20270;-78
2023/01/26 02:03:21;;;;;;;41.40;22.40;;;;;;;5.84;60.09;99236.94;7007965;28;20210;-77
2023/01/26 02:06:47;;;;;;;40.30;22.67;;;;;;;6.17;59.84;99233.31;7005740;28;20313;-78
2023/01/26 02:10:18;;;;;;;39.30;21.50;;;;;;;5.53;60.89;99238.53;7008145;28;20206;-78
2023/01/26 02:13:42;;;;;;;41.40;23.40;;;;;;;6.10;60.30;99242.16;7007691;28;20278;-77
2023/01/26 02:17:05;;;;;;;36.77;20.93;;;;;;;5.99;60.31;99238.00;7010298;28;20901;-77
2023/01/26 02:20:31;;;;;;;41.53;22.07;;;;;;;6.11;59.92;99243.84;7009477;28;20333;-78
2023/01/26 02:24:07;;;;;;;37.80;20.57;;;;;;;5.93;60.11;99235.97;7016568;28;20233;-78
2023/01/26 02:27:30;;;;;;;35.73;19.80;;;;;;;6.02;59.93;99243.00;7034795;28;20290;-78
2023/01/26 02:30:52;;;;;;;36.50;21.43;;;;;;;5.76;60.90;99228.88;7034386;28;20186;-78
2023/01/26 02:34:14;;;;;;;35.47;19.57;;;;;;;5.74;60.66;99214.00;7033518;28;20210;-78
2023/01/26 02:37:36;;;;;;;37.53;20.80;;;;;;;6.11;60.32;99231.31;7033437;28;20314;-78
2023/01/26 02:41:00;;;;;;;35.93;21.30;;;;;;;6.12;59.88;99222.25;7033942;28;20301;-80
2023/01/26 02:44:22;;;;;;;39.43;21.30;;;;;;;5.92;59.70;99220.06;7032994;28;20749;-77
2023/01/26 02:47:44;;;;;;;43.53;22.60;;;;;;;5.88;60.38;99214.22;7033765;28;20245;-79
2023/01/26 02:51:05;;;;;;;37.83;21.60;;;;;;;6.25;59.79;99211.06;7033289;28;20224;-78
2023/01/26 02:58:06;;;;;;;37.57;21.87;;;;;;;6.43;58.49;99191.13;7033494;28;20216;-78
2023/01/26 03:01:29;;;;;;;34.03;19.90;;;;;;;6.10;59.10;99197.53;7051181;28;20571;-77
2023/01/26 03:04:51;;;;;;;36.60;20.10;;;;;;;6.19;59.70;99193.00;7033240;28;20343;-77
2023/01/26 03:08:12;;;;;;;37.03;18.87;;;;;;;6.02;59.71;99186.78;7033376;28;20229;-78
2023/01/26 03:11:40;;;;;;;33.50;17.90;;;;;;;6.12;60.54;99191.97;7032829;28;20243;-77
2023/01/26 03:29:41;;;;;;;31.73;15.73;;;;;;;5.07;62.37;99179.41;7031947;28;20205;-78
2023/01/26 03:33:02;;;;;;;27.80;16.20;;;;;;;5.32;62.49;99175.81;7032684;28;20201;-78
2023/01/26 03:36:25;;;;;;;33.03;17.60;;;;;;;5.37;62.39;99174.31;7031767;28;20214;-78
2023/01/26 03:58:17;;;;;;;36.80;17.57;;;;;;;5.86;60.78;99178.78;6973352;28;20222;-78
2023/01/26 04:01:41;;;;;;;27.27;16.03;;;;;;;5.44;61.11;99180.69;7010794;28;20339;-78
2023/01/26 04:08:41;;;;;;;28.23;15.27;;;;;;;5.32;62.00;99178.47;7031711;28;20872;-78
2023/01/26 04:12:04;;;;;;;29.00;15.70;;;;;;;5.62;61.91;99164.50;7031834;28;20261;-78
2023/01/26 04:22:44;;;;;;;26.67;15.17;;;;;;;5.50;60.86;99107.84;7031973;28;20196;-78
2023/01/26 04:26:05;;;;;;;30.60;15.50;;;;;;;5.99;60.29;99172.91;7029135;28;20245;-77
2023/01/26 04:29:28;;;;;;;28.97;15.93;;;;;;;6.01;60.45;99168.25;7030767;28;20245;-78
2023/01/26 04:32:51;;;;;;;32.63;15.97;;;;;;;5.91;60.74;99168.41;7031701;28;20280;-78
2023/01/26 04:36:13;;;;;;;25.07;14.47;;;;;;;5.65;60.86;99173.03;7030816;28;20216;-78
2023/01/26 04:39:34;;;;;;;27.30;15.77;;;;;;;5.58;61.72;99144.44;7031326;28;20254;-78
2023/01/26 04:42:55;;;;;;;26.80;15.00;;;;;;;5.83;60.91;99162.22;7030867;28;20279;-78
2023/01/26 04:46:18;;;;;;;27.33;14.67;;;;;;;5.37;61.15;99138.72;7030262;28;20324;-78
2023/01/26 04:49:40;;;;;;;27.73;15.20;;;;;;;5.73;61.08;99145.47;7031001;28;20394;-78
2023/01/26 04:53:01;;;;;;;27.47;16.23;;;;;;;5.59;61.68;99151.44;7031271;28;20209;-78
2023/01/26 04:56:25;;;;;;;28.10;15.63;;;;;;;5.73;61.24;99150.81;7030834;28;20257;-77
2023/01/26 04:59:46;;;;;;;23.13;13.43;;;;;;;5.62;61.03;99153.81;7034265;28;20311;-78
2023/01/26 05:03:09;;;;;;;22.33;13.83;;;;;;;5.56;60.55;99122.38;7039940;28;20260;-78
2023/01/26 05:06:31;;;;;;;27.23;14.93;;;;;;;5.36;61.58;99151.25;7036715;28;20244;-78
2023/01/26 05:09:54;;;;;;;23.67;12.90;;;;;;;5.51;61.08;99157.63;7043916;28;20200;-77
2023/01/26 05:13:15;;;;;;;26.07;14.17;;;;;;;5.58;61.27;99150.63;7040899;28;20225;-78
2023/01/26 05:16:37;;;;;;;26.17;15.87;;;;;;;5.73;60.71;99148.13;7036508;28;20288;-78
2023/01/26 05:20:00;;;;;;;26.20;15.10;;;;;;;5.98;60.52;99153.34;7037743;28;20292;-78
2023/01/26 05:23:22;;;;;;;24.40;14.33;;;;;;;5.20;61.06;99131.66;7031563;28;20296;-78
2023/01/26 05:26:43;;;;;;;26.93;14.13;;;;;;;5.63;60.91;99159.00;7029697;28;20650;-78
2023/01/26 05:30:05;;;;;;;25.63;14.87;;;;;;;6.00;60.10;99156.69;7030255;28;20224;-78
2023/01/26 05:33:27;;;;;;;24.60;13.73;;;;;;;5.62;60.14;99113.69;7030729;28;20205;-78
2023/01/26 05:36:50;;;;;;;21.10;13.00;;;;;;;5.96;59.95;99139.28;7030082;28;20319;-78
2023/01/26 05:40:12;;;;;;;22.43;14.17;;;;;;;5.76;60.28;99162.00;7033009;28;20320;-78
2023/01/26 05:43:34;;;;;;;23.40;13.70;;;;;;;6.04;60.00;99162.53;7036057;28;20249;-79
2023/01/26 05:46:55;;;;;;;17.73;11.53;;;;;;;5.60;59.65;99153.97;7034881;28;20294;-78
2023/01/26 05:50:17;;;;;;;20.00;11.40;;;;;;;5.67;59.50;99159.50;7035894;28;20703;-78
2023/01/26 05:53:40;;;;;;;17.67;11.07;;;;;;;5.64;59.01;99166.00;7035057;28;20346;-78
2023/01/26 05:57:01;;;;;;;22.97;13.23;;;;;;;6.06;58.69;99176.59;7035069;28;20588;-78
2023/01/26 06:00:23;;;;;;;19.50;11.40;;;;;;;5.57;59.40;99156.97;7035636;28;20225;-78
2023/01/26 06:03:45;;;;;;;18.30;10.93;;;;;;;4.85;60.42;99172.78;7036216;28;20839;-78
2023/01/26 06:07:06;;;;;;;20.27;11.07;;;;;;;5.83;58.98;99175.59;7035788;28;20289;-78
2023/01/26 06:10:29;;;;;;;15.57;10.77;;;;;;;5.89;58.36;99164.22;7041724;28;20228;-77
2023/01/26 06:13:51;;;;;;;16.20;10.20;;;;;;;5.74;57.82;99181.91;7056312;28;20272;-78
2023/01/26 06:17:14;;;;;;;16.40;10.60;;;;;;;6.06;58.21;99168.56;7034584;28;20251;-78
2023/01/26 06:20:36;;;;;;;19.00;11.60;;;;;;;6.28;57.43;99149.13;7022447;28;20250;-78
2023/01/26 06:23:57;;;;;;;17.50;11.50;;;;;;;6.06;58.12;99181.94;7021936;28;20206;-78
2023/01/26 06:27:20;;;;;;;15.03;10.87;;;;;;;5.96;57.84;99167.91;7015406;28;20264;-79
2023/01/26 06:30:41;;;;;;;16.53;11.13;;;;;;;5.52;57.77;99175.34;7034200;28;20253;-78
2023/01/26 06:34:04;;;;;;;19.77;12.37;;;;;;;5.43;58.17;99179.00;7033605;28;20287;-78
2023/01/26 06:37:26;;;;;;;19.37;11.27;;;;;;;5.05;59.29;99174.22;7032847;28;20224;-78
2023/01/26 06:40:47;;;;;;;16.53;11.30;;;;;;;5.24;58.97;99179.28;7033105;28;20758;-78
2023/01/26 06:44:10;;;;;;;21.70;12.30;;;;;;;5.22;59.40;99169.75;7032314;28;20279;-77
2023/01/26 06:47:32;;;;;;;22.10;13.63;;;;;;;5.32;59.12;99171.28;7028488;28;20278;-77
2023/01/26 06:50:56;;;;;;;17.63;11.10;;;;;;;5.32;58.70;99136.53;7024493;28;20201;-78
2023/01/26 06:54:18;;;;;;;19.30;12.47;;;;;;;5.62;58.89;99165.34;7017501;28;20319;-78
2023/01/26 06:57:39;;;;;;;20.73;12.10;;;;;;;5.94;58.29;99173.41;7029555;28;20233;-77
2023/01/26 07:01:02;;;;;;;25.57;14.53;;;;;;;6.07;58.19;99171.06;7030371;28;20349;-78
2023/01/26 07:04:25;;;;;;;27.00;14.30;;;;;;;6.26;57.77;99164.53;7021668;28;20197;-78
2023/01/26 07:07:47;;;;;;;23.33;13.73;;;;;;;6.21;58.04;99167.72;7004175;28;20646;-78
2023/01/26 07:11:10;;;;;;;26.47;16.33;;;;;;;5.82;58.85;99179.25;7004839;28;20300;-78
2023/01/26 07:14:31;;;;;;;33.70;18.10;;;;;;;5.80;59.26;99176.78;7006373;28;20673;-78
2023/01/26 07:17:54;;;;;;;31.67;16.93;;;;;;;5.83;58.59;99130.94;7010660;28;20246;-78
2023/01/26 07:21:18;;;;;;;33.07;17.70;;;;;;;6.08;58.43;99179.94;7047439;28;20221;-78
2023/01/26 07:24:39;;;;;;;27.53;15.10;;;;;;;5.40;59.78;99189.19;7033508;28;20213;-78
2023/01/26 07:28:01;;;;;;;24.60;14.73;;;;;;;5.19;60.21;99189.63;7031652;28;20319;-78
2023/01/26 07:31:22;;;;;;;32.60;18.30;;;;;;;5.45;59.83;99194.88;7032559;28;20190;-78
2023/01/26 07:34:45;;;;;;;36.13;17.87;;;;;;;5.47;59.78;99183.03;7031626;28;20212;-78
2023/01/26 07:38:07;;;;;;;25.33;15.70;;;;;;;5.71;59.36;99188.41;7032747;28;20589;-79
2023/01/26 07:41:28;;;;;;;26.80;15.13;;;;;;;5.94;58.51;99188.63;7032626;28;20229;-80
2023/01/26 07:44:50;;;;;;;30.13;16.83;;;;;;;5.98;58.44;99185.47;7031344;28;20353;-78
2023/01/26 07:48:11;;;;;;;34.17;17.17;;;;;;;5.76;59.60;99194.13;7031723;28;20234;-79
2023/01/26 07:51:34;;;;;;;30.23;17.17;;;;;;;5.50;59.13;99173.84;7031894;28;20201;-78
2023/01/26 07:54:55;;;;;;;31.10;16.27;;;;;;;5.91;59.08;99194.31;7031062;28;20293;-78
2023/01/26 07:58:17;;;;;;;28.17;15.37;;;;;;;5.89;58.61;99189.13;7031829;28;20354;-78
2023/01/26 08:01:39;;;;;;;29.27;15.63;;;;;;;5.61;59.26;99193.06;7031260;28;20225;-78
2023/01/26 08:05:01;;;;;;;26.77;15.27;;;;;;;5.82;58.42;99187.28;7029687;28;20829;-78
2023/01/26 08:08:24;;;;;;;29.83;15.23;;;;;;;5.75;58.33;99191.59;7030701;28;20228;-78
2023/01/26 08:11:46;;;;;;;32.20;16.90;;;;;;;5.80;58.15;99184.78;7031703;28;20328;-79
2023/01/26 08:15:09;;;;;;;22.80;14.77;;;;;;;5.60;58.61;99188.72;7030892;28;20205;-78
2023/01/26 08:18:31;;;;;;;25.97;16.07;;;;;;;5.79;58.06;99177.72;7031954;28;20231;-79
2023/01/26 08:21:53;;;;;;;27.73;15.83;;;;;;;5.81;58.93;99182.94;7031453;28;20248;-79
2023/01/26 08:25:16;;;;;;;25.57;14.73;;;;;;;5.70;58.09;99117.19;7031235;28;20205;-79
2023/01/26 08:28:37;;;;;;;26.70;15.30;;;;;;;6.04;58.16;99181.28;7029774;28;20308;-79
2023/01/26 08:31:59;;;;;;;25.20;14.67;;;;;;;5.97;57.75;99182.97;7031106;28;20258;-79
2023/01/26 08:35:21;;;;;;;26.87;16.53;;;;;;;6.00;58.02;99170.06;7030377;28;20292;-79
2023/01/26 08:38:43;;;;;;;25.57;15.27;;;;;;;5.38;58.04;99148.41;7030396;28;20292;-79
2023/01/26 08:42:06;;;;;;;28.50;16.30;;;;;;;5.78;58.05;99188.59;7030783;28;20691;-78
2023/01/26 08:45:27;;;;;;;24.67;15.30;;;;;;;6.04;57.84;99163.38;7030519;28;20213;-79
2023/01/26 08:48:49;;;;;;;23.77;14.47;;;;;;;5.66;57.44;99181.91;7030787;28;20708;-78
2023/01/26 08:52:10;;;;;;;24.80;14.40;;;;;;;5.57;57.83;99178.38;7030784;28;20268;-79
2023/01/26 08:55:32;;;;;;;26.10;14.83;;;;;;;5.85;57.70;99165.56;7029823;28;20280;-79
2023/01/26 08:58:55;;;;;;;24.77;16.23;;;;;;;6.17;57.08;99171.75;7030886;28;20234;-80
2023/01/26 09:02:16;;;;;;;28.73;16.27;;;;;;;5.68;57.87;99167.38;7031174;28;20225;-79
2023/01/26 09:05:39;;;;;;;27.23;16.43;;;;;;;5.92;57.97;99154.03;7030465;28;20281;-79
2023/01/26 09:09:00;;;;;;;29.10;17.13;;;;;;;5.70;57.58;99143.94;7028226;28;20214;-79
2023/01/26 09:12:22;;;;;;;21.30;13.83;;;;;;;5.06;58.69;99109.09;7003880;28;20800;-79
2023/01/26 09:15:45;;;;;;;22.50;12.93;;;;;;;5.21;57.76;99165.41;7005112;28;20283;-79
2023/01/26 09:19:06;;;;;;;22.43;12.83;;;;;;;5.13;58.63;99163.53;7016066;28;20217;-80
2023/01/26 09:22:28;;;;;;;19.10;12.57;;;;;;;5.28;57.64;99159.25;7035568;28;20289;-80
2023/01/26 09:25:52;;;;;;;35.20;12.37;;;;;;;5.45;57.07;99163.66;7034924;28;20213;-80
2023/01/26 09:29:14;;;;;;;17.37;10.67;;;;;;;5.06;57.68;99175.03;7034429;28;20360;-80
2023/01/26 09:32:37;;;;;;;20.73;13.70;;;;;;;5.46;57.35;99169.81;7034841;28;20224;-79
2023/01/26 09:36:03;;;;;;;17.57;11.63;;;;;;;5.03;57.92;99180.72;7035168;28;20300;-79
2023/01/26 09:39:24;;;;;;;22.37;11.63;;;;;;;4.96;58.35;99183.19;7034933;28;20312;-79
2023/01/26 09:42:58;;;;;;;18.80;12.20;;;;;;;4.83;58.33;99184.66;7035060;28;20775;-79
2023/01/26 09:46:22;;;;;;;17.03;10.90;;;;;;;5.43;57.04;99172.81;7035537;28;20189;-80
2023/01/26 09:49:49;;;;;;;17.43;10.57;;;;;;;5.35;56.43;99183.47;7034554;28;20765;-80
2023/01/26 09:53:15;;;;;;;16.57;10.63;;;;;;;4.68;57.57;99128.31;7035253;28;20323;-81
2023/01/26 09:56:36;;;;;;;20.63;11.30;;;;;;;5.16;57.28;99112.47;7034971;28;20221;-80
2023/01/26 10:00:00;;;;;;;16.77;11.17;;;;;;;5.64;55.27;99174.03;7034543;28;20210;-77
2023/01/26 10:03:26;;;;;;;15.97;10.73;;;;;;;5.72;55.43;99174.03;7034595;28;20363;-78
2023/01/26 10:06:52;;;;;;;13.93;9.03;;;;;;;5.84;54.99;99177.28;7034041;28;20221;-79
2023/01/26 10:10:17;;;;;;;11.27;7.30;;;;;;;5.89;53.44;99164.22;7034071;28;20237;-79
2023/01/26 10:13:40;;;;;;;10.20;6.87;;;;;;;5.87;53.79;99179.59;7034735;28;20233;-80
2023/01/26 10:17:03;;;;;;;10.43;7.37;;;;;;;6.36;52.47;99108.97;7033437;28;20220;-79
2023/01/26 10:20:29;;;;;;;10.93;7.30;;;;;;;6.95;51.91;99164.72;7033936;28;20214;-80
2023/01/26 10:23:52;;;;;;;10.07;7.23;;;;;;;7.03;51.62;99161.97;7033767;28;20606;-79
2023/01/26 10:27:14;;;;;;;9.57;7.97;;;;;;;6.70;51.04;99139.84;7031097;28;20462;-78
2023/01/26 10:30:35;;;;;;;8.50;6.27;;;;;;;6.24;51.50;99167.38;7033124;28;20744;-80
2023/01/26 10:33:59;;;;;;;9.37;6.57;;;;;;;6.95;51.28;99168.22;7033725;28;20296;-80
2023/01/26 10:37:23;;;;;;;8.83;6.10;;;;;;;7.13;50.02;99165.28;7033517;28;20293;-80
2023/01/26 10:40:45;;;;;;;16.00;9.30;;;;;;;7.35;49.27;99164.50;7033582;28;20261;-79
2023/01/26 10:44:22;;;;;;;14.10;8.07;;;;;;;7.09;49.86;99170.19;7033333;28;20353;-78
2023/01/26 10:48:02;;;;;;;15.83;9.50;;;;;;;6.98;50.85;99169.69;7033207;28;20293;-80
2023/01/26 10:51:26;;;;;;;20.03;12.07;;;;;;;6.99;52.97;99166.00;7036134;28;20250;-81
2023/01/26 10:54:48;;;;;;;22.43;13.23;;;;;;;6.81;54.86;99160.06;7035769;28;20654;-79
2023/01/26 10:58:40;;;;;;;183.57;59.83;;;;;;;7.12;55.35;99167.13;7035818;28;20324;-83
2023/01/26 11:02:17;;;;;;;14.73;9.57;;;;;;;6.63;53.61;99167.47;7035798;28;20313;-79
2023/01/26 11:05:38;;;;;;;15.93;9.70;;;;;;;6.75;51.44;99171.47;7034799;28;20225;-81
2023/01/26 11:09:11;;;;;;;14.97;10.00;;;;;;;7.26;50.38;99154.84;7033284;28;20702;-78
2023/01/26 11:12:33;;;;;;;15.37;9.93;;;;;;;7.15;51.05;99153.41;7033464;28;20264;-80
2023/01/26 11:16:04;;;;;;;12.50;8.87;;;;;;;6.96;49.94;99121.63;7029164;28;20235;-82
2023/01/26 11:19:42;;;;;;;12.70;8.63;;;;;;;6.54;50.68;99142.53;7028584;28;20318;-79
2023/01/26 11:23:09;;;;;;;11.87;8.47;;;;;;;5.38;51.87;99109.16;7003958;28;20290;-80
2023/01/26 11:26:53;;;;;;;13.33;8.17;;;;;;;6.18;51.66;99143.16;7013276;28;20209;-78
2023/01/26 11:30:33;;;;;;;13.03;9.20;;;;;;;5.83;53.21;99156.88;7004423;28;20351;-78
2023/01/26 11:34:05;;;;;;;15.27;9.40;;;;;;;5.56;53.03;99127.72;7017556;28;20267;-83
2023/01/26 11:37:48;;;;;;;13.93;8.63;;;;;;;5.38;54.86;99141.25;7036129;28;20246;-82
2023/01/26 11:41:26;;;;;;;15.47;9.93;;;;;;;5.55;54.60;99144.78;7034424;28;20599;-81
2023/01/26 11:45:03;;;;;;;15.23;9.80;;;;;;;5.80;53.50;99142.00;7034214;28;20728;-81
2023/01/26 11:48:31;;;;;;;17.83;10.07;;;;;;;5.42;54.95;99115.00;7035380;28;20319;-81
2023/01/26 11:52:03;;;;;;;17.20;10.20;;;;;;;6.14;53.62;99123.88;7035999;28;20275;-81
2023/01/26 11:55:30;;;;;;;13.37;8.83;;;;;;;6.09;53.42;99114.69;7035356;28;20297;-82
2023/01/26 11:58:55;;;;;;;15.10;9.40;;;;;;;5.79;53.85;99129.56;7035515;28;20831;-81
2023/01/26 12:02:27;;;;;;;12.80;8.67;;;;;;;5.25;53.91;99111.44;7036525;28;20358;-81
2023/01/26 12:05:52;;;;;;;10.93;8.00;;;;;;;5.13;54.74;99117.28;7036408;28;20287;-81
2023/01/26 12:09:19;;;;;;;12.97;8.60;;;;;;;5.22;54.64;99103.78;7037385;28;20222;-82
2023/01/26 12:12:44;;;;;;;13.70;8.87;;;;;;;5.81;54.59;99113.38;7043523;28;20360;-82
2023/01/26 12:16:12;;;;;;;15.37;10.77;;;;;;;6.01;54.55;99090.63;7033128;28;20208;-83
2023/01/26 12:19:42;;;;;;;15.67;10.43;;;;;;;6.00;53.70;99096.97;7033016;28;20692;-82
2023/01/26 12:23:05;;;;;;;15.77;11.27;;;;;;;6.11;53.73;99094.78;7033673;28;20212;-83
2023/01/26 12:26:33;;;;;;;20.13;12.40;;;;;;;5.91;54.07;99064.06;7004501;28;20214;-82
2023/01/26 12:29:57;;;;;;;15.53;10.27;;;;;;;5.87;54.66;99062.72;7001799;28;20292;-79
2023/01/26 12:33:19;;;;;;;14.20;10.27;;;;;;;5.90;53.00;99065.03;7002872;28;20197;-79
2023/01/26 12:36:46;;;;;;;16.97;10.70;;;;;;;6.28;53.21;99080.38;7002531;28;20751;-79
2023/01/26 12:40:19;;;;;;;12.70;10.30;;;;;;;6.20;53.45;99066.97;7002810;28;20677;-78
2023/01/26 12:43:57;;;;;;;15.70;11.47;;;;;;;6.18;52.78;99066.31;7002942;28;20670;-78
2023/01/26 12:47:24;;;;;;;18.13;11.60;;;;;;;6.13;52.85;99063.31;7002024;28;20217;-78
2023/01/26 12:50:49;;;;;;;15.47;10.77;;;;;;;6.20;53.02;99058.13;7006101;28;20225;-79
2023/01/26 12:54:16;;;;;;;16.97;11.87;;;;;;;5.87;53.65;99059.19;7008315;28;20205;-78
2023/01/26 12:57:42;;;;;;;22.47;11.87;;;;;;;5.92;53.72;99060.38;7008806;28;20419;-79
2023/01/26 13:01:07;;;;;;;18.80;12.43;;;;;;;6.11;53.58;99057.31;7008374;28;20217;-79
2023/01/26 13:04:29;;;;;;;19.57;13.13;;;;;;;6.43;52.68;99051.03;7008301;28;20201;-78
2023/01/26 13:07:50;;;;;;;22.37;14.03;;;;;;;5.97;54.12;99054.50;7008108;28;20370;-79
2023/01/26 13:11:43;;;;;;;18.03;12.40;;;;;;;5.66;54.08;99048.97;7007722;28;20295;-80
2023/01/26 13:15:06;;;;;;;22.70;13.20;;;;;;;6.25;53.93;99059.28;7027304;28;20285;-79
2023/01/26 13:18:48;;;;;;;22.90;13.03;;;;;;;6.14;53.85;99062.31;7034729;28;20252;-80
2023/01/26 13:22:38;;;;;;;21.87;12.50;;;;;;;6.16;53.52;99046.09;7036019;28;20924;-79
2023/01/26 13:26:14;;;;;;;21.47;13.47;;;;;;;6.02;53.30;99028.88;7034960;28;20669;-79
2023/01/26 13:29:35;;;;;;;25.53;14.43;;;;;;;5.55;54.64;99043.16;7034470;28;20192;-80
2023/01/26 13:33:20;;;;;;;21.87;13.17;;;;;;;5.73;54.51;99044.63;7035603;28;20195;-79
2023/01/26 13:36:46;;;;;;;22.67;13.63;;;;;;;5.89;54.16;99041.16;7030264;28;20358;-80
2023/01/26 13:40:16;;;;;;;22.73;13.40;;;;;;;5.91;54.51;99044.47;7035145;28;20199;-79
2023/01/26 13:43:41;;;;;;;24.17;13.97;;;;;;;6.28;53.51;99037.53;7036182;28;20217;-79
2023/01/26 13:47:08;;;;;;;23.43;14.63;;;;;;;6.35;53.51;99046.53;7035043;28;20363;-78
2023/01/26 13:50:30;;;;;;;24.60;14.73;;;;;;;6.22;53.72;99038.22;7035183;28;20355;-80
2023/01/26 13:53:59;;;;;;;22.87;13.87;;;;;;;6.22;54.07;99056.09;7035378;28;20204;-79
2023/01/26 13:57:22;;;;;;;23.77;13.60;;;;;;;6.36;52.59;99034.81;7034806;28;20222;-78
2023/01/26 14:00:57;;;;;;;21.33;12.73;;;;;;;6.37;52.47;99062.44;7034048;28;20302;-79
2023/01/26 14:04:21;;;;;;;22.00;13.13;;;;;;;5.96;53.65;99059.00;7034842;28;20306;-79
2023/01/26 14:07:43;;;;;;;22.23;13.87;;;;;;;5.77;52.89;99048.63;7035533;28;20306;-80
2023/01/26 14:11:17;;;;;;;18.70;13.03;;;;;;;5.57;53.59;99062.53;7034241;28;20696;-79
2023/01/26 14:14:39;;;;;;;18.80;11.80;;;;;;;5.73;53.63;99054.50;7034143;28;20208;-79
2023/01/26 14:18:02;;;;;;;19.13;12.80;;;;;;;5.59;54.23;99049.81;7034506;28;20592;-80
2023/01/26 14:21:23;;;;;;;19.87;12.57;;;;;;;5.85;53.18;99061.22;7034061;28;20288;-80
2023/01/26 14:24:48;;;;;;;19.07;11.43;;;;;;;5.43;53.48;99039.97;7033168;28;20730;-81
2023/01/26 14:28:15;;;;;;;23.27;14.30;;;;;;;5.55;54.49;99070.72;7033993;28;20714;-79
2023/01/26 14:31:36;;;;;;;19.10;12.50;;;;;;;5.51;53.71;99069.41;7034410;28;20702;-79
2023/01/26 14:34:59;;;;;;;18.50;12.07;;;;;;;5.48;53.71;99039.47;7033952;28;20256;-79
2023/01/26 14:38:21;;;;;;;19.40;11.80;;;;;;;5.82;53.29;99072.22;7034186;28;20987;-79
2023/01/26 14:41:43;;;;;;;17.53;11.17;;;;;;;6.03;53.13;99059.16;7034363;28;20289;-79
2023/01/26 14:45:11;;;;;;;18.37;11.67;;;;;;;5.75;52.69;99069.38;7033860;28;20241;-79
2023/01/26 14:48:36;;;;;;;19.63;12.33;;;;;;;6.19;52.89;99073.34;7034435;28;20839;-79
2023/01/26 14:51:58;;;;;;;19.67;12.67;;;;;;;5.96;52.41;99085.75;7020650;28;20670;-79
2023/01/26 14:55:23;;;;;;;18.13;12.83;;;;;;;6.08;53.23;99087.09;7016607;28;20680;-79
2023/01/26 14:58:44;;;;;;;18.57;11.90;;;;;;;5.43;53.37;99082.75;7005008;28;20720;-79
2023/01/26 15:02:16;;;;;;;20.30;12.73;;;;;;;5.42;53.56;99091.78;7005611;28;20320;-79
2023/01/26 15:05:40;;;;;;;20.63;11.90;;;;;;;5.26;54.19;99083.72;7022516;28;20209;-79
2023/01/26 15:09:04;;;;;;;20.60;12.17;;;;;;;5.96;52.84;99087.63;7032143;28;20228;-79
2023/01/26 15:12:26;;;;;;;19.50;11.63;;;;;;;5.26;53.88;99058.84;7032167;28;20219;-79
2023/01/26 15:16:02;;;;;;;18.37;11.83;;;;;;;5.55;53.70;99104.66;7032355;28;20294;-79
2023/01/26 15:19:26;;;;;;;18.40;11.13;;;;;;;5.75;53.67;99079.25;7032704;28;20244;-79
2023/01/26 15:22:48;;;;;;;14.17;9.40;;;;;;;5.54;53.64;99097.66;7032634;28;20710;-79
2023/01/26 15:26:14;;;;;;;16.10;10.73;;;;;;;5.51;54.23;99104.16;7032120;28;20242;-79
2023/01/26 15:29:36;;;;;;;18.63;11.50;;;;;;;5.60;54.29;99095.13;7032366;28;20213;-79
2023/01/26 15:32:57;;;;;;;19.90;10.10;;;;;;;5.26;55.04;99098.94;7032341;28;20339;-79
2023/01/26 15:36:31;;;;;;;22.77;14.37;;;;;;;5.65;54.26;99100.81;7031551;28;20235;-79
2023/01/26 15:39:52;;;;;;;16.97;10.67;;;;;;;5.32;54.71;99096.44;7032515;28;20269;-79
2023/01/26 15:43:15;;;;;;;18.43;11.47;;;;;;;5.85;54.22;99098.66;7032699;28;20710;-80
2023/01/26 15:46:36;;;;;;;17.13;10.90;;;;;;;6.02;53.74;99086.94;7008207;28;20257;-80
2023/01/26 15:49:58;;;;;;;19.30;11.27;;;;;;;6.55;53.40;99092.50;7014722;28;20231;-80
2023/01/26 15:53:21;;;;;;;17.23;9.67;;;;;;;6.81;51.99;99075.16;7005930;28;20289;-80
2023/01/26 15:56:43;;;;;;;14.40;10.10;;;;;;;7.09;51.49;99105.00;7031591;28;20229;-81
2023/01/26 16:00:06;;;;;;;16.50;9.33;;;;;;;7.35;50.70;99092.06;7033128;28;20837;-78
2023/01/26 16:03:28;;;;;;;12.17;8.33;;;;;;;7.08;49.77;99088.06;7033038;28;20312;-79
2023/01/26 16:06:49;;;;;;;13.10;9.50;;;;;;;7.48;49.53;99077.06;7032547;28;20716;-79
2023/01/26 16:10:12;;;;;;;11.43;8.03;;;;;;;7.79;48.92;99088.56;7032500;28;20300;-79
2023/01/26 16:13:33;;;;;;;12.00;9.03;;;;;;;7.71;48.56;99083.25;7030840;28;20305;-79
2023/01/26 16:16:55;;;;;;;10.43;8.27;;;;;;;7.45;48.57;99057.81;7006647;28;20363;-79
2023/01/26 16:20:17;;;;;;;13.03;8.97;;;;;;;7.17;49.49;99094.19;7003290;28;20305;-81
2023/01/26 16:23:39;;;;;;;14.67;9.50;;;;;;;6.75;50.37;99112.50;7002880;28;20230;-79
2023/01/26 16:27:01;;;;;;;14.07;9.40;;;;;;;6.76;51.14;99108.81;6999754;28;20231;-79
2023/01/26 16:30:24;;;;;;;14.93;9.57;;;;;;;5.24;53.27;99064.34;7001664;28;20879;-80
2023/01/26 16:33:45;;;;;;;14.73;10.13;;;;;;;5.08;54.95;99111.59;7001913;28;20288;-79
2023/01/26 16:37:07;;;;;;;13.30;9.57;;;;;;;5.33;54.52;99114.16;7000817;28;20233;-79
2023/01/26 16:40:28;;;;;;;14.33;8.97;;;;;;;5.51;53.97;99109.50;7001047;28;20239;-79